• Join FlightAware (Why Join?)
  • Login
  • US Flag 
06:50AM EDT


 

Airport Tracker/Info


-or-


 

Live Flight TrackerFlight Track Log ✈ SWA395 ✈ 12-Apr-2013 ✈ KTUL - KDAL

Flight Track Log - Related Links

Times and Time Zones

All times are in EDT time to prevent confusion due to time zone crossing. See the SWA395 flight status page for this flight to view local times or setup timezone preferences in your user account.

Time Position Orientation Groundspeed Altitude Reporting Facility
EDT Latitude Longitude Course Direction KTS MPH feet Rate Location/Type
08:36AM 36.1950 -95.9100 245° Southwest 143 165 1,500  Level Kansas City Center
08:37AM 36.1744 -95.9644 245° Southwest 210 242 4,600 2,880 Climbing Kansas City Center
08:38AM 36.1478 -95.9622 176° South 219 252 5,700 2,880 Climbing Kansas City Center
08:39AM 36.0669 -95.9500 173° South 280 322 8,900 3,120 Climbing Kansas City Center
08:40AM 35.9756 -95.9372 174° South 315 362 12,200 3,420 Climbing Kansas City Center
08:41AM 35.8744 -95.9231 174° South 350 403 15,900 3,360 Climbing Kansas City Center
08:42AM 35.7736 -95.9089 173° South 363 418 19,200 2,880 Climbing Kansas City Center
08:43AM 35.6700 -95.8964 174° South 367 422 21,900 1,440 Climbing Kansas City Center
08:44AM 35.5492 -95.8803 174° South 394 453 22,000  Climbing Fort Worth Center
08:45AM 35.4342 -95.8619 173° South 408 470 22,000  Level Fort Worth Center
08:46AM 35.3153 -95.8464 174° South 420 483 22,000  Level Fort Worth Center
08:47AM 35.1939 -95.8333 175° South 433 498 22,000  Level Fort Worth Center
08:48AM 35.0708 -95.8128 172° South 438 504 22,000  Level Fort Worth Center
08:49AM 34.9517 -95.7947 173° South 443 510 22,000  Level Fort Worth Center
08:50AM 34.8306 -95.7869 177° South 443 510 22,000  Level Fort Worth Center
08:51AM 34.7183 -95.8294 197° South 424 488 22,000  Level Fort Worth Center
08:52AM 34.6083 -95.8669 196° South 424 488 22,000  Level Fort Worth Center
08:53AM 34.4961 -95.9067 196° South 419 482 22,000  Level Fort Worth Center
08:54AM 34.3858 -95.9439 196° South 414 476 22,000  Level Fort Worth Center
08:55AM 34.2800 -95.9833 197° South 408 470 22,000  Level Fort Worth Center
08:56AM 34.1739 -96.0203 196° South 408 470 22,000 -240 Level Fort Worth Center
08:57AM 34.0825 -96.0519 196° South 397 457 21,600 -1,320 Descending Fort Worth Center
08:58AM 33.9828 -96.0883 197° South 383 441 19,400 -2,400 Descending Fort Worth Center
08:59AM 33.8869 -96.1200 195° South 368 423 16,800 -2,700 Descending Fort Worth Center
09:00AM 33.7936 -96.1514 196° South 354 407 14,100 -2,400 Descending Fort Worth Center
09:01AM 33.6958 -96.1850 196° South 347 399 12,000 -1,800 Descending Fort Worth Center
09:02AM 33.6189 -96.2111 196° South 331 381 10,500 -1,020 Descending Fort Worth Center
09:03AM 33.5294 -96.2422 196° South 312 359 10,000 -300 Descending Fort Worth Center
09:04AM 33.4564 -96.2681 196° South 307 353 10,000  Level Fort Worth Center
09:05AM 33.3650 -96.2992 196° South 307 353 10,000 -120 Level Fort Worth Center
09:06AM 33.2922 -96.3250 197° South 302 348 9,800 -960 Descending Fort Worth Center
09:07AM 33.2281 -96.3928 221° Southwest 289 333 8,100 -1,320 Descending Fort Worth Center
09:08AM 33.1889 -96.4578 234° Southwest 289 333 7,200 -1,020 Descending Fort Worth Center
09:09AM 33.1478 -96.5425 240° Southwest 273 314 6,100 -1,020 Descending Fort Worth Center
09:10AM 33.1128 -96.6222 242° Southwest 273 314 5,200 -900 Descending Fort Worth Center
09:11AM 33.0797 -96.6919 241° Southwest 273 314 4,300 -1,080 Descending Fort Worth Center
09:11AM 33.0500 -96.7500 239° Southwest 266 306 3,400 -900 Descending Dallas / Fort Worth TRACON
09:12AM 33.0000 -96.8000 220° Southwest 251 289 2,900 -360 Descending Dallas / Fort Worth TRACON
09:13AM 32.9500 -96.8667 228° Southwest 219 252 2,800 -480 Descending Dallas / Fort Worth TRACON
09:14AM 32.9167 -96.9000 220° Southwest 210 242 2,000 -840 Descending Dallas / Fort Worth TRACON
09:15AM 32.8833 -96.9000 180° South 187 215 1,200 -840 Descending Dallas / Fort Worth TRACON
09:19AM 32.8471 -96.8518 North  Level Estimated